Flag for Canada

Past Weather in 43°45'18.7"N, 79°27'59.6"W, Canada — Yesterday and Last 2 Weeks

Currently: 32 °F. Mostly cloudy. (Weather station: Toronto Pearson International Airport, Canada). See more current weather

Past Weather in 43°45'18.7"N, 79°27'59.6"W — Graph

°F

43°45'18.7"N, 79°27'59.6"W Temperature Yesterday

Maximum temperature yesterday: 41 °F (at 2:00 pm)
Minimum temperature yesterday: 28 °F (at 8:00 am)
Average temperature yesterday: 34 °F

High & Low Weather Summary for the Past Weeks

 TemperatureHumidityPressure
High41 °F (Jan 14, 2:00 pm)100% (Jan 2, 12:00 am)30.37 "Hg (Jan 2, 12:00 am)
Low16 °F (Jan 8, 4:00 am)32% (Jan 9, 3:49 pm)29.46 "Hg (Jan 16, 11:00 pm)
Average31 °F82%30.03 "Hg
* Reported Jan 2 12:00 am — Jan 17 12:00 am, 43°45'18.7"N, 79°27'59.6"W. Weather by CustomWeather, © 2021

Note: Actual official high and low records may vary slightly from our data, if they occured in-between our weather recording intervals... More about our weather records

43°45'18.7"N, 79°27'59.6"W Weather History for the Previous 24 Hours

Scroll right to see more
 ConditionsComfort  
Time TempWeatherWind HumidityBarometerVisibility
12:00 am
Sun, Jan 17
32 °FPassing clouds.14 mph80%29.46 "Hg15 mi
11:00 pm
Sat, Jan 16
32 °FPassing clouds.16 mph75%29.46 "Hg15 mi
10:00 pm32 °FOvercast.15 mph75%29.48 "Hg15 mi
9:00 pm32 °FOvercast.20 mph75%29.48 "Hg15 mi
8:00 pm32 °FOvercast.15 mph75%29.49 "Hg15 mi
7:00 pm32 °FPassing clouds.14 mph75%29.50 "Hg15 mi
6:00 pm32 °FPassing clouds.10 mph80%29.49 "Hg15 mi
5:00 pm34 °FBroken clouds.15 mph70%29.49 "Hg15 mi
4:00 pm36 °FBroken clouds.15 mph65%29.48 "Hg15 mi
3:00 pm37 °FBroken clouds.18 mph65%29.48 "Hg15 mi
2:00 pm41 °FBroken clouds.13 mph66%29.48 "Hg15 mi
1:00 pm39 °FPartly sunny.14 mph70%29.49 "Hg15 mi
12:22 pm36 °FPartly sunny.14 mph75%29.50 "Hg15 mi
12:00 pm37 °FPartly sunny.13 mph81%29.51 "Hg15 mi
11:00 am37 °FScattered clouds.10 mph81%29.54 "Hg15 mi
10:00 am34 °FPartly sunny.8 mph81%29.56 "Hg15 mi
9:00 am30 °FScattered clouds.6 mph86%29.59 "Hg15 mi
8:00 am28 °FPassing clouds.7 mph93%29.60 "Hg15 mi
7:00 am30 °FPassing clouds.3 mph93%29.61 "Hg15 mi
6:00 am30 °FPassing clouds.5 mph93%29.61 "Hg12 mi
5:00 am32 °FPassing clouds.6 mph87%29.61 "Hg10 mi
4:00 am32 °FPassing clouds.6 mph100%29.63 "Hg10 mi
3:00 am34 °FPassing clouds.3 mph93%29.63 "Hg15 mi
2:00 am34 °FPartly cloudy.7 mph93%29.65 "Hg15 mi
1:00 am34 °FOvercast.6 mph93%29.65 "Hg10 mi
Weather by CustomWeather, © 2021

See weather overview